Airfield :
LOGIN :

Register | Disclaimer

   EN    FR    IT 

 










Legend :    VFR   Marginal VFR   IFR   Intensive IFR   Very Intensive IFR
Visi :
Ceiling :
>= 8 km
>= 3000ft
5 to 8 km
1000 to 3000 ft
1500m to 5 km
500 to 1000 ft
800 to 1500m
200 to 500 ft
< 800m
< 200 ft
Symbols :   Thunderstorms  Fog  Heavy snow  Heavy precipitations  Wind > 20 kt
SIGMETs :     Misc.  Thunderstorms  Icing  Turbulence  Mountain Waves  Volcanic Ashes







- Airport Elevation : 587 ft
- IATA code : XCR
- Download approach charts


LFOK - Chalons Vatry

CURRENT METAR :
  • 200900Z AUTO 18017KT 9999 -RA BKN007 OVC011 03/03 Q1006 TEMPO 2000 RADZ OVC004 BECMG 20015G25KT

EXPIRED METARs :
  • 200830Z AUTO 18019KT 9000 -RA BKN007 OVC015 03/02 Q1007 TEMPO 2000 RADZ OVC004 BECMG 20015G25KT
  • 200800Z AUTO 18018KT 9000 -RA BKN007 OVC011 03/02 Q1008 TEMPO 2000 RADZ OVC004 BECMG 20015G25KT
  • 200730Z AUTO 18016KT 9999 -RA OVC008/// ///TCU 03/02 Q1008 TEMPO 2000 RADZ OVC004 BECMG 20015G25KT
  • 200700Z AUTO 19012KT 6000 -RA OVC008 03/02 Q1009 BECMG 20015G25KT
  • 200630Z AUTO 19012KT 8000 -RA OVC008 03/02 Q1010 BECMG 20015G25KT

TAF TAF LFOK
Valid from the 20 at 06:00 until the 21 at 06:00 UTC


200500Z 2006/2106 20012KT 9999 BKN020
BECMG 2006/2009 20015G25KT OVC007
TEMPO 2009/2016 2000 RADZ OVC004
BECMG 2016/2018 30015KT BKN030
TEMPO 2016/2021 30020G35KT 3000 SHRA BKN013
PROB30
TEMPO 2021/2106 2000 SHRASN BKN013
BECMG 2103/2106 30005KT
No reported NOTAMs for that airfield.



MET'MAP, your aeronautical weather chart ! - Copyright ORBIFLY December 2007 - Disclaimer

ORBIFLY MET'MAP TEAM :

Programming & Development : Alexandra Zaïnal
Concept & Development : Baudouin d'Aumeries
Co-Development & Prog : Marc-Olivier Méhu
Technical & hardware support : Manuel Goepfert

Contact : metmap@orbifly.com




SOURCES & CREDITS :

   NOAA